createdAt,value
2017-11-25T18:47:05.642Z,97811.19
2017-11-25T18:49:33.048Z,97816.08
2017-11-25T18:52:00.576Z,97829.02
2017-11-25T18:54:27.988Z,97827.64
2017-11-25T18:56:55.510Z,97834.59
2017-11-25T18:59:22.980Z,97833.09
2017-11-25T19:01:50.461Z,97837.36
2017-11-25T19:04:17.897Z,97848.38
2017-11-25T19:06:45.363Z,97851.33
2017-11-25T19:09:12.763Z,97852.42
2017-11-25T19:11:40.211Z,97858.45
2017-11-25T19:14:07.610Z,97860.05
2017-11-25T19:16:35.108Z,97859.73
2017-11-25T19:19:02.584Z,97854.50
2017-11-25T19:21:30.012Z,97860.08
2017-11-25T19:23:57.404Z,97861.86
2017-11-25T19:26:24.837Z,97867.94
2017-11-25T19:28:52.312Z,97868.06
2017-11-25T19:31:19.959Z,97877.38
2017-11-25T19:33:47.741Z,97889.44
2017-11-25T19:36:15.177Z,97890.95
2017-11-25T19:38:42.656Z,97895.52
2017-11-25T19:41:10.168Z,97912.59
2017-11-25T19:43:37.622Z,97906.23
2017-11-25T19:46:05.048Z,97906.19
2017-11-25T19:48:32.700Z,97905.11
2017-11-25T19:51:00.097Z,97917.45
2017-11-25T19:53:27.540Z,97915.45
2017-11-25T19:55:54.998Z,97918.58
2017-11-25T19:58:22.432Z,97922.03
2017-11-25T20:00:50.005Z,97935.69
2017-11-25T20:03:17.466Z,97937.91
2017-11-25T20:05:44.869Z,97945.54
2017-11-25T20:08:12.489Z,97945.32
2017-11-25T20:10:39.880Z,97951.39
2017-11-25T20:13:07.398Z,97957.53
2017-11-25T20:15:34.802Z,97967.13
2017-11-25T20:18:02.240Z,97963.19
2017-11-25T20:20:29.703Z,97966.33
2017-11-25T20:22:57.171Z,97963.02
2017-11-25T20:25:24.560Z,97964.52
2017-11-25T20:27:51.987Z,97963.42
2017-11-25T20:30:19.404Z,97971.30
2017-11-25T20:32:46.968Z,97977.02
2017-11-25T20:35:14.470Z,97974.22
2017-11-25T20:37:41.902Z,97969.11
2017-11-25T20:40:09.354Z,97980.12
2017-11-25T20:42:37.029Z,97985.25
2017-11-25T20:45:04.473Z,97981.28
2017-11-25T20:47:31.902Z,97992.61
2017-11-25T20:49:59.468Z,97995.31
2017-11-25T20:52:26.864Z,97996.55
2017-11-25T20:54:54.385Z,98002.64
2017-11-25T20:57:21.779Z,98004.29
2017-11-25T20:59:49.253Z,98006.41
2017-11-25T21:02:16.709Z,98006.83
2017-11-25T21:04:44.159Z,98002.67
2017-11-25T21:07:11.559Z,98010.14
2017-11-25T21:09:39.008Z,98008.59
2017-11-25T21:12:06.450Z,98006.11
2017-11-25T21:14:33.948Z,98005.86
2017-11-25T21:17:01.418Z,98009.30
2017-11-25T21:19:28.863Z,98014.34
2017-11-25T21:21:56.258Z,98015.00
2017-11-25T21:24:23.717Z,98017.71
2017-11-25T21:26:51.120Z,98021.34
2017-11-25T21:29:18.775Z,98008.90
2017-11-25T21:31:46.242Z,98014.41
2017-11-25T21:34:13.797Z,98017.61
2017-11-25T21:36:41.234Z,98017.34
2017-11-25T21:39:08.685Z,98018.31
2017-11-25T21:41:36.089Z,98025.96
2017-11-25T21:44:03.572Z,98026.72
2017-11-25T21:46:31.043Z,98029.72
2017-11-25T21:48:58.515Z,98037.84
2017-11-25T21:51:25.922Z,98033.73
2017-11-25T21:53:53.394Z,98039.47
2017-11-25T21:56:20.792Z,98045.02
2017-11-25T21:58:48.231Z,98044.23
2017-11-25T22:01:15.697Z,98052.95
2017-11-25T22:03:43.136Z,98059.11
2017-11-25T22:06:10.609Z,98057.37
2017-11-25T22:08:38.076Z,98061.18
2017-11-25T22:11:05.544Z,98061.56
2017-11-25T22:13:33.039Z,98063.89
2017-11-25T22:16:00.465Z,98073.03
2017-11-25T22:18:27.911Z,98073.01
2017-11-25T22:20:55.386Z,98076.93
2017-11-25T22:23:22.792Z,98078.99
2017-11-25T22:25:50.256Z,98076.55
2017-11-25T22:28:17.814Z,98084.14
2017-11-25T22:30:45.416Z,98087.15
2017-11-25T22:33:12.988Z,98091.58
2017-11-25T22:35:40.451Z,98095.86
2017-11-25T22:38:07.847Z,98103.11
2017-11-25T22:40:35.424Z,98106.15
2017-11-25T22:43:02.883Z,98109.48
2017-11-25T22:45:30.362Z,98120.55
2017-11-25T22:47:57.783Z,98115.67
2017-11-25T22:50:25.278Z,98124.27
2017-11-25T22:52:52.721Z,98127.90
2017-11-25T22:55:20.264Z,98131.36
2017-11-25T22:57:47.726Z,98118.73
2017-11-25T23:00:15.377Z,98130.13
2017-11-25T23:02:42.821Z,98128.18
2017-11-25T23:05:10.300Z,98132.36
2017-11-25T23:07:37.713Z,98133.15
2017-11-25T23:10:05.132Z,98141.87
2017-11-25T23:12:32.566Z,98147.11
2017-11-25T23:14:59.972Z,98141.97
2017-11-25T23:17:27.420Z,98144.75
2017-11-25T23:19:54.809Z,98149.32
2017-11-25T23:22:22.320Z,98149.66
2017-11-25T23:24:50.199Z,98152.28
2017-11-25T23:27:17.740Z,98160.82
2017-11-25T23:29:45.281Z,98156.50
2017-11-25T23:32:12.774Z,98162.64
2017-11-25T23:34:40.165Z,98162.41
2017-11-25T23:37:07.738Z,98170.23
2017-11-25T23:39:35.293Z,98170.44
2017-11-25T23:42:02.707Z,98167.36
2017-11-25T23:44:30.095Z,98174.84
2017-11-25T23:46:57.531Z,98170.89
2017-11-25T23:49:24.924Z,98182.91
2017-11-25T23:51:52.390Z,98181.18
2017-11-25T23:54:20.128Z,98179.21
2017-11-25T23:56:47.674Z,98181.05
2017-11-25T23:59:15.236Z,98185.85
